createdAt,value
2018-07-08T00:00:02.599Z,17.94
2018-07-08T00:00:06.816Z,17.92
2018-07-08T00:00:11.127Z,17.98
2018-07-08T00:00:15.335Z,17.94
2018-07-08T00:00:19.330Z,17.94
2018-07-08T00:00:23.539Z,17.98
2018-07-08T00:00:27.744Z,17.94
2018-07-08T00:00:32.065Z,17.91
2018-07-08T00:00:36.383Z,17.94
2018-07-08T00:00:40.587Z,17.94
2018-07-08T00:00:44.802Z,17.96
2018-07-08T00:00:49.019Z,17.94
2018-07-08T00:00:53.114Z,17.99
2018-07-08T00:00:57.478Z,18.02
2018-07-08T00:01:01.697Z,17.94
2018-07-08T00:01:05.689Z,17.95
2018-07-08T00:01:10.007Z,17.99
2018-07-08T00:01:14.324Z,17.92
2018-07-08T00:01:18.424Z,17.95
2018-07-08T00:01:22.416Z,17.98
2018-07-08T00:01:26.637Z,17.92
2018-07-08T00:01:30.848Z,17.99
2018-07-08T00:01:35.169Z,17.92
2018-07-08T00:01:39.385Z,18.01
2018-07-08T00:01:43.591Z,17.92
2018-07-08T00:01:47.812Z,17.95
2018-07-08T00:01:52.123Z,17.98
2018-07-08T00:01:56.375Z,17.94
2018-07-08T00:02:00.475Z,17.98
2018-07-08T00:02:04.789Z,17.98
2018-07-08T00:02:09.102Z,17.94
2018-07-08T00:02:13.313Z,17.98
2018-07-08T00:02:17.530Z,17.95
2018-07-08T00:02:21.855Z,17.95
2018-07-08T00:02:26.057Z,17.94
2018-07-08T00:02:30.152Z,17.98
2018-07-08T00:02:34.469Z,17.95
2018-07-08T00:02:38.791Z,18.01
2018-07-08T00:02:42.998Z,17.99
2018-07-08T00:02:47.316Z,17.96
2018-07-08T00:02:51.639Z,17.99
2018-07-08T00:02:55.736Z,17.96
2018-07-08T00:02:59.849Z,18.02
2018-07-08T00:03:03.842Z,18.01
2018-07-08T00:03:07.939Z,18.01
2018-07-08T00:03:12.138Z,18.01
2018-07-08T00:03:16.445Z,18.02
2018-07-08T00:03:20.647Z,17.92
2018-07-08T00:03:24.854Z,18.01
2018-07-08T00:03:29.167Z,17.96
2018-07-08T00:03:33.264Z,17.95
2018-07-08T00:03:37.469Z,17.98
2018-07-08T00:03:41.778Z,17.95
2018-07-08T00:03:45.883Z,17.94
2018-07-08T00:03:50.195Z,17.99
2018-07-08T00:03:54.509Z,17.98
2018-07-08T00:03:58.829Z,17.96
2018-07-08T00:04:03.034Z,18.05
2018-07-08T00:04:07.036Z,17.99
2018-07-08T00:04:11.348Z,17.96
2018-07-08T00:04:15.562Z,17.99
2018-07-08T00:04:19.763Z,17.96
2018-07-08T00:04:24.073Z,17.96
2018-07-08T00:04:28.167Z,18.04
2018-07-08T00:04:32.369Z,18.04
2018-07-08T00:04:36.465Z,18.01
2018-07-08T00:04:40.776Z,17.96
2018-07-08T00:04:45.087Z,18.02
2018-07-08T00:04:49.302Z,17.99
2018-07-08T00:04:53.402Z,17.98
2018-07-08T00:04:57.706Z,18.01
2018-07-08T00:05:01.907Z,17.96
2018-07-08T00:05:05.894Z,17.99
2018-07-08T00:05:10.095Z,18.01
2018-07-08T00:05:14.412Z,17.96
2018-07-08T00:05:18.623Z,17.96
2018-07-08T00:05:22.719Z,17.98
2018-07-08T00:05:27.027Z,17.99
2018-07-08T00:05:31.235Z,18.01
2018-07-08T00:05:35.445Z,18.01
2018-07-08T00:05:39.663Z,17.99
2018-07-08T00:05:43.986Z,18.02
2018-07-08T00:05:48.189Z,17.98
2018-07-08T00:05:52.496Z,17.96
2018-07-08T00:05:56.705Z,17.96
2018-07-08T00:06:01.012Z,17.98
2018-07-08T00:06:05.228Z,17.99
2018-07-08T00:06:09.228Z,18.01
2018-07-08T00:06:13.535Z,18.01
2018-07-08T00:06:17.842Z,17.98
2018-07-08T00:06:21.940Z,17.95
2018-07-08T00:06:26.252Z,17.94
2018-07-08T00:06:30.477Z,18.04
2018-07-08T00:06:34.496Z,18.02
2018-07-08T00:06:38.805Z,17.99
2018-07-08T00:06:43.117Z,17.99
2018-07-08T00:06:47.435Z,18.02
2018-07-08T00:06:51.637Z,18.01
2018-07-08T00:06:55.739Z,18.01
2018-07-08T00:06:59.946Z,18.02
2018-07-08T00:07:04.052Z,17.99
2018-07-08T00:07:07.941Z,17.96
2018-07-08T00:07:12.157Z,18.01
2018-07-08T00:07:16.359Z,18.01
2018-07-08T00:07:20.471Z,17.98
2018-07-08T00:07:24.674Z,17.99
2018-07-08T00:07:28.768Z,17.96
2018-07-08T00:07:33.079Z,17.96
2018-07-08T00:07:37.178Z,17.99
2018-07-08T00:07:41.502Z,18.01
2018-07-08T00:07:45.720Z,17.99
2018-07-08T00:07:49.918Z,18.02
2018-07-08T00:07:54.123Z,18.01
2018-07-08T00:07:58.444Z,18.05
2018-07-08T00:08:02.650Z,17.94
2018-07-08T00:08:06.640Z,17.98
2018-07-08T00:08:10.746Z,18.04
2018-07-08T00:08:14.945Z,17.99
2018-07-08T00:08:19.046Z,17.99
2018-07-08T00:08:23.258Z,18.01
2018-07-08T00:08:27.360Z,17.96
2018-07-08T00:08:31.664Z,17.95
2018-07-08T00:08:35.975Z,17.99
2018-07-08T00:08:40.294Z,17.98
2018-07-08T00:08:44.606Z,17.98
2018-07-08T00:08:48.702Z,17.99
2018-07-08T00:08:52.715Z,17.95
2018-07-08T00:08:57.021Z,18.01
2018-07-08T00:09:01.220Z,18.02
2018-07-08T00:09:05.530Z,17.92
2018-07-08T00:09:09.623Z,18.04
2018-07-08T00:09:13.931Z,18.04
2018-07-08T00:09:18.139Z,17.92
2018-07-08T00:09:22.337Z,17.96
2018-07-08T00:09:26.437Z,17.92
2018-07-08T00:09:30.421Z,18.04
2018-07-08T00:09:34.627Z,17.96
2018-07-08T00:09:38.828Z,17.99
2018-07-08T00:09:42.926Z,18.04
2018-07-08T00:09:47.020Z,18.01
2018-07-08T00:09:51.233Z,18.05
2018-07-08T00:09:55.434Z,18.05
2018-07-08T00:09:59.747Z,17.95
2018-07-08T00:10:03.743Z,18.02
2018-07-08T00:10:07.737Z,18.01
2018-07-08T00:10:11.954Z,18.01
2018-07-08T00:10:16.262Z,17.99
2018-07-08T00:10:20.468Z,18.02
2018-07-08T00:10:24.566Z,18.04
2018-07-08T00:10:28.767Z,17.98
2018-07-08T00:10:32.983Z,17.99
2018-07-08T00:10:37.188Z,18.01
2018-07-08T00:10:41.512Z,18.02
2018-07-08T00:10:45.613Z,17.96
2018-07-08T00:10:49.933Z,18.05
2018-07-08T00:10:54.248Z,17.96
2018-07-08T00:10:58.449Z,17.92
2018-07-08T00:11:02.554Z,17.98
2018-07-08T00:11:06.867Z,17.99
2018-07-08T00:11:11.178Z,17.99
2018-07-08T00:11:15.560Z,17.92
2018-07-08T00:11:19.869Z,18.04
2018-07-08T00:11:24.071Z,18.02
2018-07-08T00:11:28.275Z,18.02
2018-07-08T00:11:32.473Z,17.94
2018-07-08T00:11:36.785Z,17.99
2018-07-08T00:11:40.998Z,17.99
2018-07-08T00:11:45.315Z,17.99
2018-07-08T00:11:49.521Z,18.01
2018-07-08T00:11:53.618Z,18.02
2018-07-08T00:11:57.822Z,18.04
2018-07-08T00:12:02.134Z,18.05
2018-07-08T00:12:06.236Z,17.95
2018-07-08T00:12:10.332Z,17.96
2018-07-08T00:12:14.642Z,18.02
2018-07-08T00:12:18.953Z,17.91
2018-07-08T00:12:23.155Z,17.94
2018-07-08T00:12:27.253Z,17.98
2018-07-08T00:12:31.452Z,17.94
2018-07-08T00:12:35.549Z,17.96
2018-07-08T00:12:39.749Z,17.94
2018-07-08T00:12:43.952Z,17.96
2018-07-08T00:12:48.261Z,17.95
2018-07-08T00:12:52.367Z,17.98
2018-07-08T00:12:56.470Z,17.99
2018-07-08T00:13:00.785Z,17.99
2018-07-08T00:13:04.908Z,17.98
2018-07-08T00:13:09.122Z,17.99
2018-07-08T00:13:13.217Z,17.99
2018-07-08T00:13:17.419Z,18.01
2018-07-08T00:13:21.727Z,17.94
2018-07-08T00:13:25.936Z,18.05
2018-07-08T00:13:30.152Z,17.91
2018-07-08T00:13:34.357Z,17.96
2018-07-08T00:13:38.563Z,17.99
2018-07-08T00:13:42.875Z,18.01
2018-07-08T00:13:47.080Z,18.01
2018-07-08T00:13:51.181Z,18.01
2018-07-08T00:13:55.388Z,18.07
2018-07-08T00:13:59.701Z,17.98
2018-07-08T00:14:04.024Z,17.98
2018-07-08T00:14:08.224Z,17.99
2018-07-08T00:14:12.459Z,18.01
2018-07-08T00:14:16.553Z,18.01
2018-07-08T00:14:20.650Z,18.02
2018-07-08T00:14:24.634Z,17.99
2018-07-08T00:14:28.730Z,18.02
2018-07-08T00:14:33.043Z,18.04
2018-07-08T00:14:37.361Z,17.99
2018-07-08T00:14:41.566Z,18.05
2018-07-08T00:14:45.884Z,18.01
2018-07-08T00:14:50.199Z,18.05
2018-07-08T00:14:54.305Z,18.04
2018-07-08T00:14:58.513Z,18.09
2018-07-08T00:15:02.610Z,17.99
2018-07-08T00:15:06.648Z,17.99
2018-07-08T00:15:10.646Z,17.98
2018-07-08T00:15:14.745Z,17.95
2018-07-08T00:15:19.054Z,18.02
2018-07-08T00:15:23.050Z,17.95
2018-07-08T00:15:27.259Z,18.01
2018-07-08T00:15:31.576Z,18.1
2018-07-08T00:15:35.782Z,18.02
2018-07-08T00:15:40.107Z,18.01
2018-07-08T00:15:44.417Z,18.02
2018-07-08T00:15:48.638Z,18.09
2018-07-08T00:15:52.738Z,18.1
2018-07-08T00:15:56.939Z,18.07
2018-07-08T00:16:01.272Z,18.1
2018-07-08T00:16:05.474Z,18.11
2018-07-08T00:16:09.676Z,18.02
2018-07-08T00:16:13.992Z,18.09
2018-07-08T00:16:18.305Z,17.98
2018-07-08T00:16:22.621Z,18.1
2018-07-08T00:16:26.830Z,18.07
2018-07-08T00:16:31.033Z,17.98
2018-07-08T00:16:35.346Z,18.1
2018-07-08T00:16:39.568Z,17.95
2018-07-08T00:16:43.774Z,18.01
2018-07-08T00:16:48.016Z,18.11
2018-07-08T00:16:52.116Z,18.09
2018-07-08T00:16:56.216Z,18.09
2018-07-08T00:17:00.417Z,18.01
2018-07-08T00:17:04.510Z,18.1
2018-07-08T00:17:08.721Z,18.11
2018-07-08T00:17:13.048Z,18.05
2018-07-08T00:17:17.252Z,18.09
2018-07-08T00:17:21.455Z,18.1
2018-07-08T00:17:25.767Z,18.09
2018-07-08T00:17:29.871Z,17.99
2018-07-08T00:17:34.178Z,18.1
2018-07-08T00:17:38.502Z,18.05
2018-07-08T00:17:42.496Z,18.07
2018-07-08T00:17:46.703Z,18.01
2018-07-08T00:17:50.910Z,18.1
2018-07-08T00:17:55.227Z,18.11
2018-07-08T00:17:59.431Z,18.13
2018-07-08T00:18:03.633Z,18.11
2018-07-08T00:18:07.521Z,18.11
2018-07-08T00:18:11.620Z,18.09
2018-07-08T00:18:15.827Z,18.04
2018-07-08T00:18:20.031Z,18.11
2018-07-08T00:18:24.333Z,18.11
2018-07-08T00:18:28.437Z,18.09
2018-07-08T00:18:32.744Z,18.1
2018-07-08T00:18:36.944Z,18.1
2018-07-08T00:18:41.252Z,18.09
2018-07-08T00:18:45.461Z,18.09
2018-07-08T00:18:49.677Z,18.07
2018-07-08T00:18:53.885Z,18.09
2018-07-08T00:18:57.979Z,18.09
2018-07-08T00:19:02.127Z,18.13
2018-07-08T00:19:06.345Z,18.09
2018-07-08T00:19:10.442Z,18.13
2018-07-08T00:19:14.750Z,18.09
2018-07-08T00:19:19.059Z,18.14
2018-07-08T00:19:23.311Z,18.1
2018-07-08T00:19:27.416Z,18.1
2018-07-08T00:19:31.627Z,18.11
2018-07-08T00:19:35.937Z,18.07
2018-07-08T00:19:40.148Z,18.11
2018-07-08T00:19:44.247Z,18.16
2018-07-08T00:19:48.450Z,18.09
2018-07-08T00:19:52.545Z,18.09
2018-07-08T00:19:56.752Z,18.09
2018-07-08T00:20:01.112Z,18.09
2018-07-08T00:20:05.107Z,18.14
2018-07-08T00:20:09.210Z,18.07
2018-07-08T00:20:13.526Z,18.04
2018-07-08T00:20:17.736Z,18.09
2018-07-08T00:20:22.049Z,18.11
2018-07-08T00:20:26.357Z,18.09
2018-07-08T00:20:30.562Z,18.19
2018-07-08T00:20:34.765Z,18.1
2018-07-08T00:20:39.077Z,18.16
2018-07-08T00:20:43.280Z,18.09
2018-07-08T00:20:47.376Z,18.04
2018-07-08T00:20:51.684Z,18.19
2018-07-08T00:20:55.997Z,18.09
2018-07-08T00:21:00.199Z,18.09
2018-07-08T00:21:04.190Z,18.1
2018-07-08T00:21:08.288Z,18.13
2018-07-08T00:21:12.601Z,18.09
2018-07-08T00:21:16.909Z,18.1
2018-07-08T00:21:21.109Z,18.13
2018-07-08T00:21:25.319Z,18.11
2018-07-08T00:21:29.304Z,18.05
2018-07-08T00:21:33.616Z,18.1
2018-07-08T00:21:37.820Z,18.11
2018-07-08T00:21:42.028Z,18.09
2018-07-08T00:21:46.141Z,18.11
2018-07-08T00:21:50.385Z,18.11
2018-07-08T00:21:54.708Z,18.09
2018-07-08T00:21:58.913Z,18.13
2018-07-08T00:22:03.024Z,18.09
2018-07-08T00:22:07.020Z,18.11
2018-07-08T00:22:11.232Z,18.1
2018-07-08T00:22:15.436Z,18.11
2018-07-08T00:22:19.534Z,18.07
2018-07-08T00:22:23.632Z,18.1
2018-07-08T00:22:27.732Z,18.11
2018-07-08T00:22:32.052Z,18.07
2018-07-08T00:22:36.369Z,18.14
2018-07-08T00:22:40.685Z,18.09
2018-07-08T00:22:44.896Z,18.14
2018-07-08T00:22:49.213Z,18.1
2018-07-08T00:22:53.418Z,18.1
2018-07-08T00:22:57.637Z,18.09
2018-07-08T00:23:01.853Z,18.09
2018-07-08T00:23:05.959Z,18.05
2018-07-08T00:23:10.063Z,18.07
2018-07-08T00:23:14.275Z,18.13
2018-07-08T00:23:18.581Z,18.13
2018-07-08T00:23:54.790Z,18.11
2018-07-08T00:23:58.999Z,18.09
2018-07-08T00:24:03.205Z,18.09
2018-07-08T00:24:07.321Z,18.1
2018-07-08T00:24:11.536Z,18.07
2018-07-08T00:24:15.848Z,18.11
2018-07-08T00:24:20.053Z,18.1
2018-07-08T00:24:24.257Z,18.11
2018-07-08T00:24:28.357Z,18.11
2018-07-08T00:24:32.574Z,18.11
2018-07-08T00:24:36.781Z,18.11
2018-07-08T00:24:40.985Z,18.09
2018-07-08T00:24:45.302Z,18.1
2018-07-08T00:24:49.618Z,18.1
2018-07-08T00:24:53.949Z,18.11
2018-07-08T00:24:58.164Z,18.1
2018-07-08T00:25:02.482Z,18.11
2018-07-08T00:25:06.700Z,18.13
2018-07-08T00:25:11.021Z,18.09
2018-07-08T00:25:15.337Z,18.14
2018-07-08T00:25:19.431Z,18.11
2018-07-08T00:25:23.739Z,18.09
2018-07-08T00:25:28.053Z,18.11
2018-07-08T00:25:32.365Z,18.11
2018-07-08T00:25:36.569Z,17.99
2018-07-08T00:25:40.881Z,18.1
2018-07-08T00:25:44.980Z,18.09
2018-07-08T00:25:49.290Z,18.09
2018-07-08T00:25:53.603Z,17.95
2018-07-08T00:25:57.808Z,18.11
2018-07-08T00:26:02.019Z,18.09
2018-07-08T00:26:06.223Z,18.11
2018-07-08T00:26:10.541Z,18.1
2018-07-08T00:26:14.745Z,18.1
2018-07-08T00:26:19.065Z,18.05
2018-07-08T00:26:23.385Z,18.11
2018-07-08T00:26:27.597Z,18.1
2018-07-08T00:26:31.953Z,18.11
2018-07-08T00:26:36.160Z,18.07
2018-07-08T00:26:40.260Z,18.1
2018-07-08T00:26:44.469Z,18.11
2018-07-08T00:26:48.681Z,18.1
2018-07-08T00:26:52.889Z,18.09
2018-07-08T00:26:56.985Z,18.02
2018-07-08T00:27:01.297Z,18.09
2018-07-08T00:27:05.509Z,18.01
2018-07-08T00:27:09.508Z,18.09
2018-07-08T00:27:13.605Z,18.07
2018-07-08T00:27:17.918Z,18.09
2018-07-08T00:27:22.135Z,18.13
2018-07-08T00:27:26.442Z,18.05
2018-07-08T00:27:30.545Z,18.02
2018-07-08T00:27:34.748Z,18.1
2018-07-08T00:27:39.060Z,18.04
2018-07-08T00:27:43.367Z,17.99
2018-07-08T00:27:47.357Z,18.09
2018-07-08T00:27:51.660Z,18.07
2018-07-08T00:27:55.868Z,17.98
2018-07-08T00:27:59.864Z,18.02
2018-07-08T00:28:04.074Z,18.13
2018-07-08T00:28:08.384Z,18.04
2018-07-08T00:28:12.585Z,18.1
2018-07-08T00:28:16.900Z,18.01
2018-07-08T00:28:21.200Z,17.99
2018-07-08T00:28:25.198Z,17.99
2018-07-08T00:28:29.297Z,18.02
2018-07-08T00:28:33.404Z,17.99
2018-07-08T00:28:37.749Z,17.95
2018-07-08T00:28:41.963Z,17.98
2018-07-08T00:28:46.169Z,17.99
2018-07-08T00:28:50.479Z,17.99
2018-07-08T00:28:54.581Z,17.96
2018-07-08T00:28:58.799Z,18.02
2018-07-08T00:29:02.692Z,17.98
2018-07-08T00:29:06.902Z,17.95
2018-07-08T00:29:11.208Z,17.99
2018-07-08T00:29:15.415Z,17.99
2018-07-08T00:29:19.732Z,18.01
2018-07-08T00:29:24.040Z,17.98
2018-07-08T00:29:28.136Z,18.04
2018-07-08T00:29:32.445Z,17.98
2018-07-08T00:29:36.752Z,18.02
2018-07-08T00:29:40.846Z,17.96
2018-07-08T00:29:45.046Z,18.01
2018-07-08T00:29:49.255Z,17.99
2018-07-08T00:29:53.466Z,17.99
2018-07-08T00:29:57.768Z,17.98
2018-07-08T00:30:01.969Z,17.95
2018-07-08T00:30:06.079Z,17.96
2018-07-08T00:30:10.072Z,18.02
2018-07-08T00:30:14.182Z,18.02
2018-07-08T00:30:18.495Z,17.95
2018-07-08T00:30:22.598Z,18.04
2018-07-08T00:30:26.910Z,18.01
2018-07-08T00:30:31.114Z,18.01
2018-07-08T00:30:35.426Z,17.96
2018-07-08T00:30:39.624Z,17.96
2018-07-08T00:30:43.956Z,17.99
2018-07-08T00:30:48.166Z,17.98
2018-07-08T00:30:52.474Z,17.99
2018-07-08T00:30:56.677Z,17.96
2018-07-08T00:31:00.881Z,17.99
2018-07-08T00:31:05.084Z,17.98
2018-07-08T00:31:09.074Z,17.98
2018-07-08T00:31:13.275Z,17.94
2018-07-08T00:31:17.387Z,18.04
2018-07-08T00:31:21.488Z,17.98
2018-07-08T00:31:25.694Z,17.98
2018-07-08T00:31:30.001Z,17.96
2018-07-08T00:31:34.211Z,18.02
2018-07-08T00:31:38.200Z,17.92
2018-07-08T00:31:42.196Z,17.96
2018-07-08T00:31:46.290Z,17.94
2018-07-08T00:31:50.602Z,17.87
2018-07-08T00:32:26.700Z,17.95
2018-07-08T00:32:30.792Z,17.91
2018-07-08T00:32:34.890Z,17.91
2018-07-08T00:32:38.877Z,17.92
2018-07-08T00:32:43.095Z,17.94
2018-07-08T00:32:47.401Z,17.92
2018-07-08T00:32:51.494Z,17.95
2018-07-08T00:32:55.590Z,17.92
2018-07-08T00:32:59.899Z,17.91
2018-07-08T00:33:03.899Z,17.86
2018-07-08T00:33:08.214Z,17.96
2018-07-08T00:33:12.422Z,17.92
2018-07-08T00:33:16.520Z,17.87
2018-07-08T00:33:20.723Z,17.96
2018-07-08T00:33:24.922Z,17.94
2018-07-08T00:33:29.230Z,17.91
2018-07-08T00:33:33.543Z,17.96
2018-07-08T00:33:37.854Z,17.87
2018-07-08T00:33:42.066Z,17.92
2018-07-08T00:33:46.372Z,17.84
2018-07-08T00:33:50.575Z,17.89
2018-07-08T00:33:54.884Z,17.89
2018-07-08T00:33:59.089Z,17.92
2018-07-08T00:34:03.188Z,17.87
2018-07-08T00:34:07.411Z,17.87
2018-07-08T00:34:11.505Z,17.92
2018-07-08T00:34:15.707Z,17.92
2018-07-08T00:34:20.013Z,17.91
2018-07-08T00:34:24.227Z,17.91
2018-07-08T00:34:28.226Z,17.91
2018-07-08T00:34:32.323Z,17.86
2018-07-08T00:34:36.636Z,17.84
2018-07-08T00:34:40.847Z,17.89
2018-07-08T00:34:45.048Z,17.86
2018-07-08T00:34:49.148Z,17.86
2018-07-08T00:34:53.347Z,17.81
2018-07-08T00:34:57.550Z,17.94
2018-07-08T00:35:01.905Z,17.87
2018-07-08T00:35:06.271Z,17.91
2018-07-08T00:35:10.475Z,17.86
2018-07-08T00:35:14.782Z,17.92
2018-07-08T00:35:18.988Z,17.89
2018-07-08T00:35:23.084Z,17.81
2018-07-08T00:35:27.189Z,17.89
2018-07-08T00:35:31.394Z,17.86
2018-07-08T00:35:35.708Z,17.91
2018-07-08T00:35:40.033Z,17.86
2018-07-08T00:35:44.374Z,17.84
2018-07-08T00:35:48.580Z,17.91
2018-07-08T00:35:52.683Z,17.86
2018-07-08T00:35:56.993Z,17.84
2018-07-08T00:36:01.094Z,17.86
2018-07-08T00:36:05.208Z,17.91
2018-07-08T00:36:09.302Z,17.89
2018-07-08T00:36:13.625Z,17.89
2018-07-08T00:36:17.826Z,17.86
2018-07-08T00:36:22.038Z,17.87
2018-07-08T00:36:26.352Z,17.83
2018-07-08T00:36:30.556Z,17.84
2018-07-08T00:36:34.767Z,17.83
2018-07-08T00:36:38.967Z,17.83
2018-07-08T00:36:43.167Z,17.86
2018-07-08T00:36:47.478Z,17.89
2018-07-08T00:36:51.574Z,17.86
2018-07-08T00:36:55.886Z,17.87
2018-07-08T00:36:59.984Z,17.86
2018-07-08T00:37:04.076Z,17.83
2018-07-08T00:37:08.065Z,17.83
2018-07-08T00:37:12.371Z,17.87
2018-07-08T00:37:16.586Z,17.92
2018-07-08T00:37:20.902Z,17.84
2018-07-08T00:37:24.890Z,17.83
2018-07-08T00:37:29.199Z,17.86
2018-07-08T00:37:33.400Z,17.8
2018-07-08T00:37:37.609Z,17.89
2018-07-08T00:37:41.601Z,17.89
2018-07-08T00:37:45.812Z,17.86
2018-07-08T00:37:49.912Z,17.83
2018-07-08T00:37:54.220Z,17.86
2018-07-08T00:37:58.316Z,17.83
2018-07-08T00:38:02.517Z,17.84
2018-07-08T00:38:06.518Z,17.91
2018-07-08T00:38:10.648Z,17.84
2018-07-08T00:38:14.960Z,17.87
2018-07-08T00:38:19.158Z,17.91
2018-07-08T00:38:23.470Z,17.84
2018-07-08T00:38:27.683Z,17.8
2018-07-08T00:38:32.000Z,17.8
2018-07-08T00:38:36.219Z,17.84
2018-07-08T00:38:40.314Z,17.81
2018-07-08T00:38:44.628Z,17.79
2018-07-08T00:38:48.933Z,17.8
2018-07-08T00:38:53.244Z,17.86
2018-07-08T00:38:57.554Z,17.84
2018-07-08T00:39:01.867Z,17.84
2018-07-08T00:39:06.072Z,17.76
2018-07-08T00:39:10.171Z,17.86
2018-07-08T00:39:14.512Z,17.81
2018-07-08T00:39:18.823Z,17.84
2018-07-08T00:39:22.817Z,17.77
2018-07-08T00:39:26.928Z,17.79
2018-07-08T00:39:31.024Z,17.79
2018-07-08T00:39:35.231Z,17.83
2018-07-08T00:39:39.535Z,17.8
2018-07-08T00:39:43.958Z,17.83
2018-07-08T00:39:48.448Z,17.8
2018-07-08T00:39:53.040Z,17.83
2018-07-08T00:39:57.914Z,17.84
2018-07-08T00:40:02.410Z,17.77
2018-07-08T00:40:06.407Z,17.83
2018-07-08T00:40:10.618Z,17.79
2018-07-08T00:40:14.940Z,17.81
2018-07-08T00:40:19.149Z,17.81
2018-07-08T00:40:23.243Z,17.79
2018-07-08T00:40:27.341Z,17.79
2018-07-08T00:40:31.333Z,17.77
2018-07-08T00:40:35.649Z,17.8
2018-07-08T00:40:39.962Z,17.74
2018-07-08T00:40:44.281Z,17.77
2018-07-08T00:40:48.375Z,17.77
2018-07-08T00:40:52.689Z,17.83
2018-07-08T00:40:57.005Z,17.76
2018-07-08T00:41:00.987Z,17.76
2018-07-08T00:41:04.982Z,17.8
2018-07-08T00:41:08.974Z,17.77
2018-07-08T00:41:13.184Z,17.77
2018-07-08T00:41:17.283Z,17.8
2018-07-08T00:41:21.288Z,17.81
2018-07-08T00:41:25.396Z,17.74
2018-07-08T00:41:29.500Z,17.84
2018-07-08T00:41:33.811Z,17.81
2018-07-08T00:41:38.016Z,17.84
2018-07-08T00:41:42.123Z,17.79
2018-07-08T00:41:46.327Z,17.76
2018-07-08T00:41:50.636Z,17.79
2018-07-08T00:41:54.954Z,17.81
2018-07-08T00:41:59.058Z,17.79
2018-07-08T00:42:03.057Z,17.79
2018-07-08T00:42:07.386Z,17.7
2018-07-08T00:42:11.594Z,17.8
2018-07-08T00:42:15.906Z,17.7
2018-07-08T00:42:20.118Z,17.79
2018-07-08T00:42:24.322Z,17.79
2018-07-08T00:42:28.525Z,17.71
2018-07-08T00:42:32.620Z,17.73
2018-07-08T00:42:36.932Z,17.7
2018-07-08T00:42:40.926Z,17.71
2018-07-08T00:42:45.129Z,17.73
2018-07-08T00:42:49.380Z,17.66
2018-07-08T00:42:53.481Z,17.7
2018-07-08T00:42:57.684Z,17.68
2018-07-08T00:43:02.017Z,17.77
2018-07-08T00:43:05.912Z,17.66
2018-07-08T00:43:09.914Z,17.68
2018-07-08T00:43:14.224Z,17.73
2018-07-08T00:43:18.534Z,17.7
2018-07-08T00:43:22.842Z,17.66
2018-07-08T00:43:26.940Z,17.76
2018-07-08T00:43:31.137Z,17.76
2018-07-08T00:43:35.445Z,17.68
2018-07-08T00:43:39.651Z,17.66
2018-07-08T00:43:43.759Z,17.68
2018-07-08T00:43:48.070Z,17.73
2018-07-08T00:43:52.280Z,17.68
2018-07-08T00:43:56.483Z,17.68
2018-07-08T00:44:00.685Z,17.73
2018-07-08T00:44:04.945Z,17.68
2018-07-08T00:44:09.146Z,17.73
2018-07-08T00:44:13.138Z,17.74
2018-07-08T00:44:17.401Z,17.65
2018-07-08T00:44:21.707Z,17.65
2018-07-08T00:44:25.591Z,17.7
2018-07-08T00:44:29.841Z,17.74
2018-07-08T00:44:34.049Z,17.65
2018-07-08T00:44:38.259Z,17.65
2018-07-08T00:44:42.354Z,17.77
2018-07-08T00:44:46.558Z,17.62
2018-07-08T00:44:50.763Z,17.7
2018-07-08T00:44:54.859Z,17.63
2018-07-08T00:44:59.071Z,17.76
2018-07-08T00:45:03.248Z,17.73
2018-07-08T00:45:07.561Z,17.65
2018-07-08T00:45:11.763Z,17.65
2018-07-08T00:45:16.071Z,17.79
2018-07-08T00:45:20.179Z,17.73
2018-07-08T00:45:24.170Z,17.65
2018-07-08T00:45:28.483Z,17.66
2018-07-08T00:45:32.804Z,17.65
2018-07-08T00:45:37.111Z,17.73
2018-07-08T00:45:41.110Z,17.65
2018-07-08T00:45:45.310Z,17.66
2018-07-08T00:45:49.618Z,17.73
2018-07-08T00:45:53.821Z,17.68
2018-07-08T00:45:58.025Z,17.66
2018-07-08T00:46:02.122Z,17.66
2018-07-08T00:46:06.016Z,17.65
2018-07-08T00:46:10.216Z,17.62
2018-07-08T00:46:14.248Z,17.65
2018-07-08T00:46:18.459Z,17.6
2018-07-08T00:46:22.670Z,17.68
2018-07-08T00:46:26.874Z,17.66
2018-07-08T00:46:31.187Z,17.68
2018-07-08T00:46:35.492Z,17.62
2018-07-08T00:46:39.696Z,17.66
2018-07-08T00:46:44.005Z,17.7
2018-07-08T00:46:47.993Z,17.68
2018-07-08T00:46:52.196Z,17.65
2018-07-08T00:46:56.294Z,17.63
2018-07-08T00:47:00.614Z,17.74
2018-07-08T00:47:04.702Z,17.74
2018-07-08T00:47:08.902Z,17.7
2018-07-08T00:47:13.103Z,17.74
2018-07-08T00:47:17.307Z,17.66
2018-07-08T00:47:21.519Z,17.74
2018-07-08T00:47:25.630Z,17.63
2018-07-08T00:47:29.514Z,17.66
2018-07-08T00:47:33.725Z,17.71
2018-07-08T00:47:37.930Z,17.62
2018-07-08T00:47:42.136Z,17.62
2018-07-08T00:47:46.344Z,17.6
2018-07-08T00:47:50.441Z,17.6
2018-07-08T00:47:54.760Z,17.74
2018-07-08T00:47:58.961Z,17.71
2018-07-08T00:48:03.061Z,17.63
2018-07-08T00:48:07.265Z,17.66
2018-07-08T00:48:11.571Z,17.66
2018-07-08T00:48:15.888Z,17.73
2018-07-08T00:48:20.094Z,17.63
2018-07-08T00:48:24.308Z,17.63
2018-07-08T00:48:28.298Z,17.66
2018-07-08T00:48:32.611Z,17.62
2018-07-08T00:48:36.729Z,17.63
2018-07-08T00:48:41.033Z,17.65
2018-07-08T00:48:45.352Z,17.65
2018-07-08T00:48:49.551Z,17.62
2018-07-08T00:48:53.762Z,17.68
2018-07-08T00:48:58.072Z,17.62
2018-07-08T00:49:02.182Z,17.62
2018-07-08T00:49:06.173Z,17.66
2018-07-08T00:49:10.267Z,17.62
2018-07-08T00:49:14.483Z,17.63
2018-07-08T00:49:18.586Z,17.65
2018-07-08T00:49:22.793Z,17.68
2018-07-08T00:49:26.786Z,17.71
2018-07-08T00:49:30.991Z,17.62
2018-07-08T00:49:35.088Z,17.66
2018-07-08T00:49:39.396Z,17.65
2018-07-08T00:49:43.595Z,17.65
2018-07-08T00:49:47.696Z,17.65
2018-07-08T00:49:51.896Z,17.63
2018-07-08T00:49:56.104Z,17.65
2018-07-08T00:50:00.318Z,17.63
2018-07-08T00:50:04.425Z,17.66
2018-07-08T00:50:08.681Z,17.68
2018-07-08T00:50:12.994Z,17.62
2018-07-08T00:50:17.199Z,17.63
2018-07-08T00:50:21.295Z,17.6
2018-07-08T00:50:25.396Z,17.7
2018-07-08T00:50:29.706Z,17.6
2018-07-08T00:50:33.798Z,17.65
2018-07-08T00:50:38.107Z,17.62
2018-07-08T00:50:42.314Z,17.68
2018-07-08T00:50:46.518Z,17.68
2018-07-08T00:50:50.826Z,17.65
2018-07-08T00:50:55.028Z,17.68
2018-07-08T00:50:59.232Z,17.65
2018-07-08T00:51:03.329Z,17.6
2018-07-08T00:51:07.536Z,17.6
2018-07-08T00:51:11.735Z,17.54
2018-07-08T00:51:15.944Z,17.58
2018-07-08T00:51:20.143Z,17.55
2018-07-08T00:51:24.463Z,17.58
2018-07-08T00:51:28.683Z,17.6
2018-07-08T00:51:32.888Z,17.55
2018-07-08T00:51:36.986Z,17.54
2018-07-08T00:51:41.200Z,17.65
2018-07-08T00:51:45.293Z,17.6
2018-07-08T00:51:49.611Z,17.62
2018-07-08T00:51:53.815Z,17.7
2018-07-08T00:51:58.022Z,17.7
2018-07-08T00:52:02.282Z,17.62
2018-07-08T00:52:06.489Z,17.53
2018-07-08T00:52:10.582Z,17.6
2018-07-08T00:52:14.786Z,17.58
2018-07-08T00:52:18.988Z,17.6
2018-07-08T00:52:23.193Z,17.54
2018-07-08T00:52:27.289Z,17.58
2018-07-08T00:52:31.607Z,17.62
2018-07-08T00:52:35.809Z,17.6
2018-07-08T00:52:39.902Z,17.63
2018-07-08T00:52:44.231Z,17.47
2018-07-08T00:52:48.433Z,17.58
2018-07-08T00:52:52.745Z,17.63
2018-07-08T00:52:56.946Z,17.58
2018-07-08T00:53:01.264Z,17.51
2018-07-08T00:53:05.463Z,17.68
2018-07-08T00:53:09.565Z,17.62
2018-07-08T00:53:13.890Z,17.53
2018-07-08T00:53:18.100Z,17.65
2018-07-08T00:53:22.194Z,17.63
2018-07-08T00:53:26.399Z,17.66
2018-07-08T00:53:30.600Z,17.6
2018-07-08T00:53:34.915Z,17.55
2018-07-08T00:53:39.121Z,17.58
2018-07-08T00:53:43.328Z,17.55
2018-07-08T00:53:47.532Z,17.58
2018-07-08T00:53:51.858Z,17.63
2018-07-08T00:53:56.296Z,17.6
2018-07-08T00:54:00.507Z,17.58
2018-07-08T00:54:04.764Z,17.6
2018-07-08T00:54:08.865Z,17.63
2018-07-08T00:54:13.186Z,17.58
2018-07-08T00:54:17.395Z,17.6
2018-07-08T00:54:21.599Z,17.63
2018-07-08T00:54:25.590Z,17.63
2018-07-08T00:54:29.797Z,17.65
2018-07-08T00:54:34.121Z,17.65
2018-07-08T00:54:38.427Z,17.58
2018-07-08T00:54:42.531Z,17.58
2018-07-08T00:54:46.850Z,17.6
2018-07-08T00:54:50.854Z,17.54
2018-07-08T00:54:55.166Z,17.54
2018-07-08T00:54:59.475Z,17.63
2018-07-08T00:55:03.694Z,17.6
2018-07-08T00:55:07.790Z,17.58
2018-07-08T00:55:11.892Z,17.51
2018-07-08T00:55:16.203Z,17.55
2018-07-08T00:55:20.408Z,17.55
2018-07-08T00:55:24.613Z,17.63